Time;durP1;ratioP1;P1;durP2;ratioP2;P2;SDS_P1;SDS_P2;PMS_P1;PMS_P2;Temp;Humidity;BMP_temperature;BMP_pressure;BME280_temperature;BME280_humidity;BME280_pressure;Samples;Min_cycle;Max_cycle;Signal;HPM_P1;HPM_P2
2022/05/24 00:00:43;;;;;;;7.72;5.03;;;18.10;91.50;;;;;;5050322;28;20434;-65
2022/05/24 00:03:09;;;;;;;6.35;5.25;;;18.10;91.60;;;;;;5051555;28;20036;-66
2022/05/24 00:05:35;;;;;;;8.20;5.10;;;18.10;91.60;;;;;;5064349;28;20447;-66
2022/05/24 00:08:02;;;;;;;6.53;5.10;;;18.10;91.70;;;;;;5050390;28;20061;-64
2022/05/24 00:10:30;;;;;;;5.43;4.45;;;18.00;91.70;;;;;;5051300;28;20256;-66
2022/05/24 00:12:56;;;;;;;6.47;4.40;;;18.00;91.70;;;;;;5050019;28;20036;-67
2022/05/24 00:15:27;;;;;;;6.80;4.35;;;18.00;91.80;;;;;;5048651;28;20570;-66
2022/05/24 00:18:15;;;;;;;6.43;4.10;;;18.00;91.80;;;;;;5052611;28;20025;-66
2022/05/24 00:20:41;;;;;;;5.47;4.30;;;18.10;91.80;;;;;;5055646;28;20032;-66
2022/05/24 00:23:08;;;;;;;6.63;4.38;;;18.10;91.80;;;;;;5047168;28;20060;-66
2022/05/24 00:25:36;;;;;;;5.15;4.28;;;18.10;91.80;;;;;;5051674;28;20385;-66
2022/05/24 00:28:03;;;;;;;6.00;4.40;;;18.10;91.90;;;;;;5052588;28;20116;-64
2022/05/24 00:30:29;;;;;;;7.20;4.38;;;18.10;91.90;;;;;;5049141;28;20040;-66
2022/05/24 00:32:55;;;;;;;9.93;4.60;;;18.10;91.90;;;;;;5052502;28;20043;-66
2022/05/24 00:35:21;;;;;;;10.10;4.95;;;18.10;91.80;;;;;;5052792;28;20037;-67
2022/05/24 00:37:48;;;;;;;7.20;4.53;;;18.10;91.90;;;;;;5049675;28;20037;-66
2022/05/24 00:40:27;;;;;;;8.65;5.00;;;18.10;91.80;;;;;;5050669;28;20637;-66
2022/05/24 00:42:52;;;;;;;10.48;4.90;;;18.10;91.80;;;;;;5051055;28;20029;-66
2022/05/24 00:45:34;;;;;;;7.68;4.50;;;18.10;91.80;;;;;;5050870;28;20447;-67
2022/05/24 00:48:05;;;;;;;6.68;4.43;;;18.10;91.70;;;;;;5054118;28;20048;-66
2022/05/24 00:50:38;;;;;;;6.90;4.15;;;18.10;91.70;;;;;;5049321;28;20040;-66
2022/05/24 00:53:18;;;;;;;6.28;4.35;;;18.10;91.70;;;;;;5049749;28;20033;-64
2022/05/24 00:55:49;;;;;;;6.60;4.40;;;18.10;91.70;;;;;;5051264;28;20024;-66
2022/05/24 00:58:18;;;;;;;6.22;4.20;;;18.10;91.70;;;;;;5049554;28;20035;-66
2022/05/24 01:00:44;;;;;;;4.45;4.05;;;18.10;91.70;;;;;;5052136;28;20064;-66
2022/05/24 01:03:10;;;;;;;5.07;4.03;;;18.10;92.10;;;;;;5045177;28;20522;-66
2022/05/24 01:05:36;;;;;;;9.38;4.43;;;18.10;91.80;;;;;;5052462;28;20136;-67
2022/05/24 01:08:02;;;;;;;5.90;3.92;;;18.10;91.80;;;;;;5049489;28;21057;-67
2022/05/24 01:10:27;;;;;;;6.72;3.95;;;18.10;91.80;;;;;;5046205;28;20095;-67
2022/05/24 01:13:03;;;;;;;6.95;3.97;;;18.10;91.80;;;;;;5051039;28;20032;-66
2022/05/24 01:15:30;;;;;;;5.40;3.78;;;18.10;91.70;;;;;;5048573;28;20120;-66
2022/05/24 01:17:57;;;;;;;5.90;3.80;;;18.10;91.70;;;;;;5051931;28;20102;-66
2022/05/24 01:20:23;;;;;;;5.80;3.60;;;18.10;91.70;;;;;;5052925;28;20037;-65
2022/05/24 01:23:00;;;;;;;4.95;3.53;;;18.10;91.70;;;;;;5048962;28;20051;-66
2022/05/24 01:25:41;;;;;;;5.05;3.83;;;18.10;91.70;;;;;;5051010;28;20040;-67
2022/05/24 01:28:15;;;;;;;4.88;3.58;;;18.10;91.60;;;;;;5057370;28;20037;-66
2022/05/24 01:30:41;;;;;;;6.40;3.70;;;18.10;91.50;;;;;;5054637;28;20210;-66
2022/05/24 01:36:09;;;;;;;7.13;3.58;;;18.10;91.50;;;;;;5050643;28;20600;-66
2022/05/24 01:38:35;;;;;;;5.20;3.50;;;18.10;91.50;;;;;;5053274;28;20045;-67
2022/05/24 01:41:02;;;;;;;6.03;3.53;;;18.10;91.50;;;;;;5045408;28;20320;-67
2022/05/24 01:43:28;;;;;;;5.95;4.10;;;18.10;91.50;;;;;;5053054;28;20029;-66
2022/05/24 01:46:08;;;;;;;6.40;3.95;;;18.10;91.50;;;;;;5052363;28;20040;-66
2022/05/24 01:48:43;;;;;;;6.15;3.55;;;18.10;91.30;;;;;;5047041;28;20083;-65
2022/05/24 01:51:12;;;;;;;5.03;3.42;;;18.10;91.60;;;;;;5052516;28;20040;-65
2022/05/24 01:53:43;;;;;;;5.07;3.42;;;18.10;91.40;;;;;;5046983;28;20400;-66
2022/05/24 01:56:17;;;;;;;5.20;3.72;;;18.10;91.40;;;;;;5050065;28;20225;-65
2022/05/24 01:58:47;;;;;;;6.40;3.65;;;18.10;91.30;;;;;;5049908;28;20037;-63
2022/05/24 02:01:40;;;;;;;6.72;3.20;;;18.10;91.30;;;;;;5052464;28;20499;-66
2022/05/24 02:04:06;;;;;;;6.68;3.42;;;18.20;91.00;;;;;;5049643;28;20040;-67
2022/05/24 02:06:32;;;;;;;8.55;3.53;;;18.20;91.20;;;;;;5055544;28;20056;-66
2022/05/24 02:08:58;;;;;;;4.07;3.08;;;18.20;91.10;;;;;;5055584;28;20029;-66
2022/05/24 02:11:29;;;;;;;3.40;3.10;;;18.20;91.00;;;;;;5046117;28;20101;-65
2022/05/24 02:14:23;;;;;;;4.88;3.03;;;18.20;91.00;;;;;;5053120;28;20061;-66
2022/05/24 02:17:06;;;;;;;4.97;3.15;;;18.20;90.70;;;;;;5045617;28;21913;-66
2022/05/24 02:19:35;;;;;;;3.85;3.28;;;18.20;90.60;;;;;;5051051;28;20047;-66
2022/05/24 02:22:06;;;;;;;5.90;3.60;;;18.20;90.80;;;;;;5052266;28;20033;-66
2022/05/24 02:24:32;;;;;;;5.95;3.63;;;18.20;90.70;;;;;;5050641;28;20116;-66
2022/05/24 02:26:58;;;;;;;4.45;3.50;;;18.20;90.70;;;;;;5048137;28;21390;-66
2022/05/24 02:29:24;;;;;;;5.15;3.30;;;18.20;90.60;;;;;;5052178;28;20063;-66
2022/05/24 02:31:50;;;;;;;5.90;3.22;;;18.20;90.60;;;;;;5049851;28;20556;-66
2022/05/24 02:34:16;;;;;;;8.25;3.45;;;18.20;90.50;;;;;;5054587;28;20036;-66
2022/05/24 02:36:42;;;;;;;5.78;3.25;;;18.20;90.50;;;;;;5053766;28;20048;-67
2022/05/24 02:39:08;;;;;;;5.18;3.63;;;18.20;90.40;;;;;;5049871;28;20585;-66
2022/05/24 02:41:34;;;;;;;3.58;3.05;;;18.20;90.40;;;;;;5051368;28;20064;-65
2022/05/24 02:44:10;;;;;;;6.95;3.40;;;18.20;90.40;;;;;;5052751;28;20044;-67
2022/05/24 02:46:38;;;;;;;4.32;3.05;;;18.20;90.40;;;;;;5044933;28;20033;-67
2022/05/24 02:49:04;;;;;;;6.40;3.20;;;18.20;90.40;;;;;;5053223;28;21585;-66
2022/05/24 02:51:30;;;;;;;4.10;3.20;;;18.20;90.30;;;;;;5052550;28;20048;-66
2022/05/24 02:53:56;;;;;;;4.55;2.60;;;18.20;90.30;;;;;;5051849;28;20037;-66
2022/05/24 02:56:22;;;;;;;4.80;3.45;;;18.20;90.30;;;;;;5053047;28;20123;-66
2022/05/24 02:58:48;;;;;;;3.33;3.03;;;18.20;90.30;;;;;;5048950;28;20504;-66
2022/05/24 03:01:22;;;;;;;4.65;2.95;;;18.10;90.30;;;;;;5052873;28;20241;-66
2022/05/24 03:03:50;;;;;;;3.53;2.90;;;18.10;90.10;;;;;;5052294;28;20033;-65
2022/05/24 03:06:17;;;;;;;4.13;2.90;;;18.10;90.20;;;;;;5051934;28;20551;-66
2022/05/24 03:11:27;;;;;;;4.97;2.90;;;18.10;90.20;;;;;;5049770;28;20210;-66
2022/05/24 03:16:37;;;;;;;3.88;2.80;;;18.00;90.20;;;;;;5049971;28;20526;-66
2022/05/24 03:19:03;;;;;;;5.68;3.28;;;18.00;90.30;;;;;;5050771;28;20048;-66
2022/05/24 03:21:29;;;;;;;2.92;2.65;;;18.00;90.30;;;;;;5050452;28;20045;-66
2022/05/24 03:23:54;;;;;;;2.80;2.60;;;18.00;90.30;;;;;;5047491;28;20128;-66
2022/05/24 03:26:20;;;;;;;7.50;2.70;;;18.00;90.20;;;;;;5049691;28;20052;-66
2022/05/24 03:28:47;;;;;;;6.32;2.30;;;18.00;90.20;;;;;;5049643;28;20496;-66
2022/05/24 03:31:13;;;;;;;2.42;2.20;;;18.00;90.10;;;;;;5051201;28;20124;-65
2022/05/24 03:33:39;;;;;;;4.35;2.30;;;18.00;90.10;;;;;;5049309;28;20048;-65
2022/05/24 03:36:06;;;;;;;3.70;2.03;;;17.90;90.00;;;;;;5049933;28;20025;-66
2022/05/24 03:38:32;;;;;;;3.00;2.20;;;17.90;90.00;;;;;;5054313;28;20090;-66
2022/05/24 03:40:57;;;;;;;2.33;1.98;;;17.90;90.00;;;;;;5049545;28;20036;-66
2022/05/24 03:43:23;;;;;;;2.92;1.90;;;17.90;90.00;;;;;;5051814;28;20083;-66
2022/05/24 03:45:49;;;;;;;2.90;1.95;;;17.90;90.00;;;;;;5050158;28;20825;-66
2022/05/24 03:48:15;;;;;;;2.25;2.08;;;17.80;90.00;;;;;;5052208;28;20107;-66
2022/05/24 03:50:41;;;;;;;3.65;2.08;;;17.90;89.90;;;;;;5054649;28;20032;-66
2022/05/24 03:53:06;;;;;;;2.60;2.15;;;17.80;89.90;;;;;;5050102;28;20033;-66
2022/05/24 03:55:32;;;;;;;2.60;1.92;;;17.90;90.00;;;;;;5051314;28;20033;-66
2022/05/24 03:58:00;;;;;;;2.63;1.85;;;17.80;89.80;;;;;;5054220;28;20028;-66
2022/05/24 04:00:38;;;;;;;3.25;2.08;;;17.80;89.80;;;;;;5048722;28;20044;-66
2022/05/24 04:03:05;;;;;;;2.80;2.10;;;17.80;89.30;;;;;;5053284;28;20037;-66
2022/05/24 04:05:31;;;;;;;2.28;2.08;;;17.80;89.70;;;;;;5048914;28;20036;-65
2022/05/24 04:07:58;;;;;;;3.70;2.10;;;17.80;89.70;;;;;;5054466;28;20448;-66
2022/05/24 04:10:23;;;;;;;2.30;2.10;;;17.80;89.70;;;;;;5052588;28;20047;-67
2022/05/24 04:12:50;;;;;;;4.10;2.00;;;17.80;89.80;;;;;;5051551;28;20033;-66
2022/05/24 04:15:16;;;;;;;3.50;1.92;;;17.80;89.70;;;;;;5047832;28;20032;-65
2022/05/24 04:17:42;;;;;;;3.88;2.00;;;17.80;89.70;;;;;;5053945;28;20040;-66
2022/05/24 04:20:09;;;;;;;4.45;1.73;;;17.80;89.70;;;;;;5049107;28;20491;-66
2022/05/24 04:22:35;;;;;;;1.90;1.75;;;17.80;89.50;;;;;;5052196;28;20182;-66
2022/05/24 04:25:01;;;;;;;1.85;1.70;;;17.80;89.40;;;;;;5050705;28;20037;-67
2022/05/24 04:27:27;;;;;;;2.78;1.88;;;17.80;89.40;;;;;;5066134;28;20043;-66
2022/05/24 04:29:54;;;;;;;2.47;1.92;;;17.80;89.30;;;;;;5048747;28;20041;-66
2022/05/24 04:32:20;;;;;;;1.85;1.70;;;17.80;89.20;;;;;;5049987;28;20029;-66
2022/05/24 04:34:46;;;;;;;4.32;2.70;;;17.80;90.00;;;;;;5047686;28;20106;-66
2022/05/24 04:37:12;;;;;;;2.83;2.20;;;17.80;89.20;;;;;;5052070;28;20551;-66
2022/05/24 04:39:39;;;;;;;2.90;1.85;;;17.80;89.20;;;;;;5058581;28;20082;-65
2022/05/24 04:42:21;;;;;;;3.53;1.85;;;17.80;89.10;;;;;;5056739;28;20041;-66
2022/05/24 04:44:49;;;;;;;2.30;1.90;;;17.80;89.10;;;;;;5058826;28;20116;-66
2022/05/24 04:47:15;;;;;;;3.65;2.30;;;17.80;89.10;;;;;;5053503;28;20035;-66
2022/05/24 04:49:43;;;;;;;4.57;2.25;;;17.80;89.20;;;;;;5055896;28;21586;-65
2022/05/24 04:52:11;;;;;;;2.72;1.90;;;17.80;89.00;;;;;;5058440;28;20127;-66
2022/05/24 04:54:38;;;;;;;2.10;1.90;;;17.80;89.00;;;;;;5056437;28;20029;-66
2022/05/24 04:57:05;;;;;;;3.15;2.13;;;17.80;89.00;;;;;;5058508;28;20028;-66
2022/05/24 04:59:31;;;;;;;4.25;2.13;;;17.80;88.90;;;;;;5056568;28;20029;-65
2022/05/24 05:01:56;;;;;;;3.53;2.13;;;17.70;89.00;;;;;;5055027;28;20456;-66
2022/05/24 05:04:24;;;;;;;2.42;2.22;;;17.80;89.20;;;;;;5057097;28;20123;-66
2022/05/24 05:06:49;;;;;;;3.90;2.35;;;17.70;89.10;;;;;;5058265;28;20037;-66
2022/05/24 05:09:15;;;;;;;3.92;2.30;;;17.70;89.20;;;;;;5055419;28;20029;-66
2022/05/24 05:11:41;;;;;;;6.50;3.38;;;17.70;89.30;;;;;;5053007;28;20061;-66
2022/05/24 05:14:08;;;;;;;4.60;2.42;;;17.70;89.30;;;;;;5055884;28;20535;-66
2022/05/24 05:16:35;;;;;;;5.13;2.50;;;17.70;89.10;;;;;;5051841;28;20056;-65
2022/05/24 05:19:02;;;;;;;4.13;2.30;;;17.70;89.00;;;;;;5055588;28;20033;-66
2022/05/24 05:21:31;;;;;;;3.55;2.20;;;17.60;89.00;;;;;;5058449;28;20060;-67
2022/05/24 05:23:58;;;;;;;5.50;2.30;;;17.60;88.90;;;;;;5054018;28;20120;-66
2022/05/24 05:26:23;;;;;;;3.58;2.13;;;17.60;89.10;;;;;;5052312;28;20051;-67
2022/05/24 05:28:49;;;;;;;5.47;2.85;;;17.60;89.30;;;;;;5058430;28;20551;-67
2022/05/24 05:31:19;;;;;;;3.88;2.45;;;17.60;89.30;;;;;;5053449;28;20051;-66
2022/05/24 05:33:47;;;;;;;4.07;2.03;;;17.50;89.40;;;;;;5062356;28;20041;-67
2022/05/24 05:36:13;;;;;;;3.00;1.63;;;17.50;89.50;;;;;;5054065;28;20041;-67
2022/05/24 05:38:45;;;;;;;2.30;1.75;;;17.50;89.40;;;;;;5052931;28;20029;-67
2022/05/24 05:41:12;;;;;;;3.38;2.20;;;17.50;89.40;;;;;;5050940;28;20037;-67
2022/05/24 05:43:37;;;;;;;3.95;1.73;;;17.50;89.30;;;;;;5055846;28;20500;-66
2022/05/24 05:46:04;;;;;;;5.13;1.85;;;17.50;89.30;;;;;;5052690;28;20047;-67
2022/05/24 05:48:30;;;;;;;2.15;1.80;;;17.50;89.20;;;;;;5050585;28;20102;-66
2022/05/24 05:50:56;;;;;;;3.47;1.80;;;17.50;89.20;;;;;;5061301;28;20049;-67
2022/05/24 05:53:22;;;;;;;1.60;1.50;;;17.50;89.20;;;;;;5056473;28;20043;-66
2022/05/24 05:55:47;;;;;;;2.15;1.48;;;17.50;89.00;;;;;;5053770;28;20533;-67
2022/05/24 05:58:13;;;;;;;3.45;1.30;;;17.50;88.70;;;;;;5056688;28;20032;-67
2022/05/24 06:00:41;;;;;;;1.75;1.30;;;17.40;88.50;;;;;;5055335;28;20060;-66
2022/05/24 06:03:07;;;;;;;5.40;1.75;;;17.40;88.30;;;;;;5051432;28;20028;-67
2022/05/24 06:05:34;;;;;;;1.55;1.30;;;17.40;88.20;;;;;;5054107;28;20029;-67
2022/05/24 06:08:01;;;;;;;2.80;1.58;;;17.40;88.00;;;;;;5054369;28;21171;-66
2022/05/24 06:10:28;;;;;;;2.10;1.25;;;17.40;87.80;;;;;;5054935;28;20152;-66
2022/05/24 06:12:56;;;;;;;1.40;1.30;;;17.30;87.80;;;;;;5052355;28;20500;-67
2022/05/24 06:15:25;;;;;;;4.55;1.33;;;17.30;87.90;;;;;;5052966;28;20037;-66
2022/05/24 06:17:51;;;;;;;4.53;1.60;;;17.30;88.00;;;;;;5056321;28;20507;-66
2022/05/24 06:20:19;;;;;;;2.65;1.50;;;17.30;88.20;;;;;;5051700;28;20092;-67
2022/05/24 06:22:44;;;;;;;1.55;1.40;;;17.30;88.30;;;;;;5055502;28;20271;-66
2022/05/24 06:25:10;;;;;;;1.58;1.45;;;17.30;88.40;;;;;;5053316;28;20044;-65
2022/05/24 06:27:36;;;;;;;1.70;1.60;;;17.20;88.50;;;;;;5054287;28;20037;-65
2022/05/24 06:30:03;;;;;;;1.67;1.10;;;17.20;88.60;;;;;;5054926;28;20199;-67
2022/05/24 06:32:30;;;;;;;1.75;1.38;;;17.20;88.50;;;;;;5055875;28;20035;-66
2022/05/24 06:34:56;;;;;;;1.48;1.30;;;17.20;88.50;;;;;;5052381;28;20495;-66
2022/05/24 06:37:21;;;;;;;1.92;1.30;;;17.20;88.50;;;;;;5052438;28;20051;-67
2022/05/24 06:39:48;;;;;;;1.33;1.23;;;17.10;88.50;;;;;;5054501;28;20480;-66
2022/05/24 06:42:14;;;;;;;1.83;1.15;;;17.10;88.60;;;;;;5052906;28;20029;-66
2022/05/24 06:44:40;;;;;;;3.15;1.40;;;17.10;88.70;;;;;;5055219;28;20025;-66
2022/05/24 06:47:05;;;;;;;2.60;1.13;;;17.10;88.60;;;;;;5052578;28;20323;-67
2022/05/24 06:49:31;;;;;;;3.50;1.30;;;17.00;88.60;;;;;;5053350;28;20037;-66
2022/05/24 06:51:57;;;;;;;2.15;1.30;;;17.00;88.60;;;;;;5053401;28;20188;-66
2022/05/24 06:54:23;;;;;;;6.28;1.42;;;17.00;88.60;;;;;;5047793;28;20033;-66
2022/05/24 06:56:49;;;;;;;1.60;1.10;;;16.90;88.60;;;;;;5053970;28;20068;-63
2022/05/24 07:04:43;;;;;;;2.10;1.17;;;16.80;88.50;;;;;;5052715;28;20060;-66
2022/05/24 07:07:09;;;;;;;1.27;1.02;;;16.80;88.40;;;;;;5060294;28;20516;-66
2022/05/24 07:09:35;;;;;;;3.73;1.30;;;16.70;88.30;;;;;;5053411;28;20028;-66
2022/05/24 07:12:01;;;;;;;2.25;1.30;;;16.70;88.40;;;;;;5048251;28;20042;-66
2022/05/24 07:14:27;;;;;;;1.50;1.30;;;16.60;88.30;;;;;;5054081;28;20032;-66
2022/05/24 07:16:53;;;;;;;1.60;1.00;;;16.60;88.50;;;;;;5054965;28;20028;-66
2022/05/24 07:19:20;;;;;;;2.45;1.20;;;16.60;88.80;;;;;;5051007;28;20472;-66
2022/05/24 07:21:46;;;;;;;1.30;1.17;;;16.60;89.10;;;;;;5051722;28;20033;-66
2022/05/24 07:24:11;;;;;;;2.20;1.20;;;16.60;89.20;;;;;;5051250;28;20028;-66
2022/05/24 07:26:37;;;;;;;1.60;1.20;;;16.60;89.30;;;;;;5051423;28;20415;-66
2022/05/24 07:29:03;;;;;;;2.28;1.23;;;16.60;89.40;;;;;;5051913;28;20031;-66
2022/05/24 07:31:29;;;;;;;1.48;1.38;;;16.50;89.50;;;;;;5054157;28;20461;-66
2022/05/24 07:33:55;;;;;;;2.28;1.27;;;16.60;89.60;;;;;;5054332;28;20040;-65
2022/05/24 07:36:21;;;;;;;3.65;1.67;;;16.60;89.70;;;;;;5064172;28;20405;-66
2022/05/24 07:38:46;;;;;;;2.13;1.27;;;16.60;90.00;;;;;;5052975;28;20364;-67
2022/05/24 07:46:41;;;;;;;2.53;1.40;;;16.70;90.40;;;;;;5050810;28;20044;-67
2022/05/24 07:49:07;;;;;;;5.30;1.98;;;16.80;90.40;;;;;;5052058;28;20423;-67
2022/05/24 07:51:32;;;;;;;2.30;1.52;;;16.90;90.20;;;;;;5051702;28;20462;-66
2022/05/24 07:53:58;;;;;;;1.67;1.33;;;16.90;90.00;;;;;;5051976;28;20120;-66
2022/05/24 07:56:24;;;;;;;1.73;1.35;;;17.00;90.00;;;;;;5052857;28;20063;-67
2022/05/24 07:58:50;;;;;;;1.92;1.40;;;17.10;89.80;;;;;;5051297;28;20041;-66
2022/05/24 08:01:17;;;;;;;3.85;1.30;;;17.10;89.70;;;;;;5053093;28;20086;-67
2022/05/24 08:03:43;;;;;;;3.50;1.33;;;17.10;89.40;;;;;;5052040;28;20053;-66
2022/05/24 08:06:10;;;;;;;3.05;1.27;;;17.10;89.20;;;;;;5053502;28;20071;-66
2022/05/24 08:08:35;;;;;;;1.10;1.00;;;17.20;89.00;;;;;;5056878;28;20037;-66
2022/05/24 08:11:01;;;;;;;1.92;1.25;;;17.10;88.80;;;;;;5051459;28;20036;-66
2022/05/24 08:13:27;;;;;;;3.45;1.23;;;17.10;88.60;;;;;;5053027;28;20047;-66
2022/05/24 08:15:54;;;;;;;2.35;1.25;;;17.10;88.30;;;;;;5056317;28;20128;-66
2022/05/24 08:18:21;;;;;;;4.10;1.40;;;17.10;88.40;;;;;;5057212;28;20123;-67
2022/05/24 08:20:47;;;;;;;2.13;1.40;;;17.10;88.50;;;;;;5059358;28;20439;-66
2022/05/24 08:23:13;;;;;;;2.80;1.40;;;17.10;88.50;;;;;;5055266;28;20033;-66
2022/05/24 08:25:39;;;;;;;3.10;1.58;;;17.00;88.40;;;;;;5057079;28;20289;-65
2022/05/24 08:28:07;;;;;;;2.85;1.35;;;17.00;88.40;;;;;;5056768;28;20574;-66
2022/05/24 08:30:34;;;;;;;2.65;1.45;;;17.00;88.30;;;;;;5057622;28;20041;-66
2022/05/24 08:33:04;;;;;;;2.90;1.40;;;17.00;88.50;;;;;;5060517;28;20032;-66
2022/05/24 08:35:32;;;;;;;2.38;1.70;;;17.00;88.60;;;;;;5055462;28;20033;-66
2022/05/24 08:37:59;;;;;;;1.48;1.38;;;17.00;88.60;;;;;;5053093;28;20524;-66
2022/05/24 08:40:25;;;;;;;1.60;1.35;;;17.00;88.60;;;;;;5055831;28;20029;-66
2022/05/24 08:42:59;;;;;;;1.40;1.30;;;17.00;88.60;;;;;;5057404;28;20037;-67
2022/05/24 08:48:29;;;;;;;0.50;0.22;;;16.90;85.70;;;;;;5056480;28;20040;-66
2022/05/24 08:51:21;;;;;;;1.50;0.38;;;16.90;83.60;;;;;;5053679;28;20539;-66
2022/05/24 08:53:50;;;;;;;0.70;0.20;;;16.80;82.40;;;;;;5035386;28;20048;-65
2022/05/24 08:56:24;;;;;;;1.55;0.10;;;16.70;83.40;;;;;;5057253;28;20082;-67
2022/05/24 08:59:03;;;;;;;0.47;0.10;;;16.60;83.30;;;;;;5058047;28;20037;-66
2022/05/24 09:01:33;;;;;;;0.30;0.05;;;16.40;83.60;;;;;;5057134;28;21374;-66
2022/05/24 09:04:00;;;;;;;2.42;0.10;;;16.30;83.40;;;;;;5057490;28;20324;-66
2022/05/24 09:07:00;;;;;;;0.20;0.10;;;16.20;84.00;;;;;;5057537;28;20471;-67
2022/05/24 09:09:28;;;;;;;0.38;0.10;;;16.10;83.10;;;;;;5054946;28;20033;-66
2022/05/24 09:12:12;;;;;;;0.13;0.10;;;16.10;84.60;;;;;;5051269;28;20071;-66
2022/05/24 09:14:46;;;;;;;6.72;0.20;;;16.00;84.40;;;;;;5058472;28;20033;-66
2022/05/24 09:17:27;;;;;;;2.75;0.17;;;16.00;84.60;;;;;;5059707;28;20059;-66
2022/05/24 09:19:52;;;;;;;0.50;0.10;;;15.90;84.10;;;;;;5059018;28;20028;-66
2022/05/24 09:22:21;;;;;;;1.05;0.10;;;15.90;85.30;;;;;;5059972;28;20474;-66
2022/05/24 09:24:57;;;;;;;0.28;0.10;;;16.00;85.80;;;;;;5058290;28;20044;-65
2022/05/24 09:27:28;;;;;;;0.20;0.10;;;16.00;85.60;;;;;;5058032;28;20033;-66
2022/05/24 09:30:34;;;;;;;2.20;0.20;;;16.00;85.90;;;;;;5059032;28;20029;-66
2022/05/24 09:33:25;;;;;;;0.20;0.20;;;16.10;86.80;;;;;;5042492;28;20089;-66
2022/05/24 09:35:59;;;;;;;0.25;0.10;;;16.10;85.60;;;;;;5042999;28;20556;-66
2022/05/24 09:38:39;;;;;;;0.30;0.20;;;16.20;85.70;;;;;;5050553;28;20487;-67
2022/05/24 09:41:22;;;;;;;0.03;0.00;;;16.30;86.00;;;;;;5052227;28;20282;-66
2022/05/24 09:44:13;;;;;;;1.88;0.10;;;16.30;84.30;;;;;;5056605;28;20466;-66
2022/05/24 09:46:42;;;;;;;1.30;0.10;;;16.40;84.50;;;;;;5056633;28;20456;-66
2022/05/24 09:49:28;;;;;;;2.53;0.50;;;16.40;84.80;;;;;;5056192;28;20505;-66
2022/05/24 09:51:56;;;;;;;1.25;0.20;;;16.50;81.90;;;;;;5050312;28;20069;-66
2022/05/24 09:54:26;;;;;;;1.20;0.20;;;16.50;83.60;;;;;;5056467;28;20048;-66
2022/05/24 09:57:10;;;;;;;0.22;0.22;;;16.50;83.30;;;;;;5057879;28;20033;-67
2022/05/24 09:59:39;;;;;;;0.73;0.20;;;16.50;82.70;;;;;;5055855;28;20396;-67
2022/05/24 10:02:31;;;;;;;0.22;0.13;;;16.50;83.50;;;;;;5055616;28;20478;-65
2022/05/24 10:04:58;;;;;;;3.50;0.10;;;16.60;81.90;;;;;;5055612;28;20112;-65
2022/05/24 10:07:26;;;;;;;0.28;0.20;;;16.60;82.80;;;;;;5055877;28;20511;-66
2022/05/24 10:10:16;;;;;;;0.40;0.20;;;16.60;82.40;;;;;;5055222;28;20032;-66
2022/05/24 10:12:47;;;;;;;0.45;0.20;;;16.70;80.50;;;;;;5051748;28;20439;-65
2022/05/24 10:15:22;;;;;;;0.20;0.20;;;16.80;82.20;;;;;;5052717;28;20519;-65
2022/05/24 10:17:59;;;;;;;0.20;0.20;;;16.90;80.30;;;;;;5056613;28;20037;-66
2022/05/24 10:20:55;;;;;;;0.28;0.28;;;16.90;80.00;;;;;;5057324;28;20040;-66
2022/05/24 10:23:41;;;;;;;0.82;0.60;;;16.90;81.30;;;;;;5054976;28;20032;-66
2022/05/24 10:26:41;;;;;;;0.30;0.30;;;17.00;81.20;;;;;;5056470;28;20039;-66
2022/05/24 10:29:19;;;;;;;1.33;0.38;;;17.10;80.60;;;;;;5055341;28;20555;-66
2022/05/24 10:38:17;;;;;;;1.23;0.30;;;17.20;79.30;;;;;;5055798;28;20597;-66
2022/05/24 10:38:18;;;;;;;1.27;0.40;;;17.30;80.30;;;;;;5055071;28;20407;-67
2022/05/24 10:40:46;;;;;;;0.40;0.40;;;17.40;79.90;;;;;;5054592;28;20097;-66
2022/05/24 10:43:40;;;;;;;0.32;0.30;;;17.40;79.10;;;;;;5051583;28;20039;-66
2022/05/24 10:46:13;;;;;;;1.30;0.25;;;17.40;76.00;;;;;;5052451;28;20057;-67
2022/05/24 10:48:50;;;;;;;0.38;0.30;;;17.50;77.90;;;;;;5053126;28;20067;-66
2022/05/24 10:51:15;;;;;;;0.55;0.20;;;17.50;78.90;;;;;;5053642;28;20545;-66
2022/05/24 10:53:55;;;;;;;0.40;0.40;;;17.50;79.40;;;;;;5055349;28;20029;-65
2022/05/24 10:56:29;;;;;;;2.58;0.30;;;17.50;76.80;;;;;;5053403;28;20044;-66
2022/05/24 10:59:03;;;;;;;0.50;0.40;;;17.50;76.60;;;;;;5053818;28;20453;-66
2022/05/24 11:01:37;;;;;;;0.40;0.35;;;17.50;75.80;;;;;;5053638;28;20052;-66
2022/05/24 11:04:13;;;;;;;0.77;0.60;;;17.50;76.40;;;;;;5050557;28;20434;-64
2022/05/24 11:06:56;;;;;;;0.50;0.50;;;17.50;76.50;;;;;;5054230;28;20079;-66
2022/05/24 11:09:25;;;;;;;1.00;0.30;;;17.60;75.10;;;;;;5053496;28;20057;-66
2022/05/24 11:11:59;;;;;;;0.80;0.45;;;17.50;77.30;;;;;;5052324;28;20040;-66
2022/05/24 11:14:27;;;;;;;0.73;0.35;;;17.60;76.80;;;;;;5050228;28;20033;-67
2022/05/24 11:16:54;;;;;;;0.50;0.50;;;17.60;76.50;;;;;;5053927;28;20032;-67
2022/05/24 11:19:36;;;;;;;1.45;0.30;;;17.60;77.70;;;;;;5050834;28;20506;-66
2022/05/24 11:22:10;;;;;;;0.25;0.20;;;17.60;77.40;;;;;;5056096;28;20361;-64
2022/05/24 11:25:19;;;;;;;2.22;0.40;;;17.70;78.00;;;;;;5054810;28;20087;-66
2022/05/24 11:28:22;;;;;;;2.45;0.30;;;17.80;77.50;;;;;;5055949;28;20059;-66
2022/05/24 11:30:48;;;;;;;1.05;0.30;;;17.80;77.30;;;;;;5056175;28;20051;-66
2022/05/24 11:33:39;;;;;;;0.45;0.30;;;17.80;79.10;;;;;;5053331;28;20040;-67
2022/05/24 11:36:21;;;;;;;0.90;0.30;;;17.80;77.20;;;;;;5057424;28;20040;-67
2022/05/24 11:38:49;;;;;;;2.38;0.73;;;17.80;77.40;;;;;;5055552;28;20041;-66
2022/05/24 11:41:19;;;;;;;2.75;0.30;;;17.80;78.60;;;;;;5052985;28;20029;-66
2022/05/24 11:43:44;;;;;;;0.20;0.20;;;17.80;78.90;;;;;;5053624;28;20045;-66
2022/05/24 11:46:33;;;;;;;0.70;0.30;;;17.90;79.60;;;;;;5055256;28;20043;-66
2022/05/24 11:49:01;;;;;;;1.80;0.35;;;17.90;78.70;;;;;;5049579;28;20041;-67
2022/05/24 11:51:45;;;;;;;0.30;0.30;;;17.90;79.30;;;;;;5056495;28;20112;-67
2022/05/24 11:54:19;;;;;;;0.55;0.35;;;18.00;78.20;;;;;;5055234;28;20041;-66
2022/05/24 11:57:02;;;;;;;0.60;0.30;;;17.90;78.60;;;;;;5059041;28;20489;-67
2022/05/24 11:59:40;;;;;;;0.50;0.20;;;18.00;77.10;;;;;;5056136;28;20033;-66
2022/05/24 12:02:21;;;;;;;0.47;0.30;;;18.00;76.60;;;;;;5059426;28;20070;-66
2022/05/24 12:07:56;;;;;;;0.93;0.20;;;18.00;76.80;;;;;;5055254;28;20039;-66
2022/05/24 12:10:22;;;;;;;1.33;0.60;;;18.00;77.70;;;;;;5060233;28;20041;-66
2022/05/24 12:13:02;;;;;;;0.77;0.28;;;18.00;78.00;;;;;;5057134;28;20045;-66
2022/05/24 12:15:32;;;;;;;0.88;0.40;;;18.00;76.80;;;;;;5060486;28;20155;-66
2022/05/24 12:17:58;;;;;;;1.98;0.32;;;18.00;76.30;;;;;;5068877;28;20404;-67
2022/05/24 12:20:47;;;;;;;1.13;0.32;;;18.00;76.70;;;;;;5059208;28;20024;-66
2022/05/24 12:23:18;;;;;;;3.25;0.30;;;18.00;76.80;;;;;;5061621;28;20077;-64
2022/05/24 12:25:58;;;;;;;1.10;0.43;;;18.00;77.30;;;;;;5061265;28;20379;-64
2022/05/24 12:28:35;;;;;;;0.95;0.30;;;18.00;76.90;;;;;;5061059;28;20088;-66
2022/05/24 12:31:21;;;;;;;1.45;0.50;;;18.10;76.90;;;;;;5059772;28;20045;-67
2022/05/24 12:33:53;;;;;;;2.50;0.60;;;18.10;76.80;;;;;;5053224;28;20508;-66
2022/05/24 12:36:18;;;;;;;0.60;0.40;;;18.20;78.10;;;;;;5061600;28;20041;-66
2022/05/24 12:38:50;;;;;;;2.28;0.55;;;18.20;78.40;;;;;;5062039;28;20067;-66
2022/05/24 12:41:30;;;;;;;0.40;0.40;;;18.30;77.70;;;;;;5069303;28;20115;-66
2022/05/24 12:44:03;;;;;;;1.38;0.47;;;18.30;77.20;;;;;;5062089;28;20444;-66
2022/05/24 12:46:34;;;;;;;0.95;0.40;;;18.40;77.30;;;;;;5059330;28;20060;-65
2022/05/24 12:49:05;;;;;;;0.47;0.35;;;18.40;77.70;;;;;;5061700;28;20033;-67
2022/05/24 12:51:30;;;;;;;0.50;0.50;;;18.50;78.70;;;;;;5059573;28;20042;-65
2022/05/24 12:54:09;;;;;;;0.70;0.50;;;18.50;79.20;;;;;;5060890;28;20127;-66
2022/05/24 12:56:34;;;;;;;0.80;0.50;;;18.60;78.60;;;;;;5060200;28;20508;-66
2022/05/24 12:59:10;;;;;;;0.93;0.57;;;18.60;78.70;;;;;;5062122;28;20058;-66
2022/05/24 13:01:41;;;;;;;2.50;0.68;;;18.60;78.00;;;;;;5059884;28;20508;-65
2022/05/24 13:04:23;;;;;;;1.90;0.50;;;18.60;78.80;;;;;;5058913;28;20032;-66
2022/05/24 13:06:49;;;;;;;0.60;0.60;;;18.50;78.00;;;;;;5058015;28;20039;-67
2022/05/24 13:09:29;;;;;;;0.93;0.70;;;18.50;79.00;;;;;;5059540;28;20040;-66
2022/05/24 13:12:17;;;;;;;1.52;0.60;;;18.60;78.70;;;;;;5051620;28;20044;-66
2022/05/24 13:14:53;;;;;;;2.88;0.60;;;18.50;77.30;;;;;;5054507;28;20040;-66
2022/05/24 13:17:21;;;;;;;1.05;0.85;;;18.50;78.70;;;;;;5057505;28;20033;-68
2022/05/24 13:20:19;;;;;;;2.25;0.60;;;18.50;78.70;;;;;;5055992;28;20569;-66
2022/05/24 13:23:02;;;;;;;1.10;0.63;;;18.50;77.80;;;;;;5044878;28;20041;-66
2022/05/24 13:25:43;;;;;;;1.35;0.70;;;18.50;77.80;;;;;;5055180;28;20504;-66
2022/05/24 13:28:10;;;;;;;0.88;0.70;;;18.50;78.80;;;;;;5055627;28;20045;-66
2022/05/24 13:33:44;;;;;;;0.80;0.60;;;18.50;78.20;;;;;;5054194;28;20120;-66
2022/05/24 13:36:20;;;;;;;1.55;0.70;;;18.50;78.40;;;;;;5055003;28;20021;-66
2022/05/24 13:39:12;;;;;;;1.05;0.93;;;18.50;78.00;;;;;;5053464;28;20098;-66